createdAt,value
2022-10-04T00:01:11.862Z,78.80
2022-10-04T00:04:20.171Z,79.11
2022-10-04T00:07:26.558Z,80.14
2022-10-04T00:10:34.878Z,79.14
2022-10-04T00:13:38.648Z,79.92
2022-10-04T00:16:44.284Z,79.65
2022-10-04T00:19:49.984Z,79.17
2022-10-04T00:23:26.401Z,80.70
2022-10-04T00:26:28.704Z,79.58
2022-10-04T00:29:34.922Z,80.51
2022-10-04T00:32:40.775Z,79.71
2022-10-04T00:35:48.942Z,79.83
2022-10-04T00:39:05.037Z,79.65
2022-10-04T00:42:17.965Z,79.55
2022-10-04T00:45:36.900Z,78.88
2022-10-04T00:48:47.886Z,79.08
2022-10-04T00:52:15.017Z,78.97
2022-10-04T00:55:44.945Z,79.36
2022-10-04T00:59:29.165Z,79.66
2022-10-04T01:02:46.714Z,80.17
2022-10-04T01:05:55.993Z,79.88
2022-10-04T01:09:05.857Z,79.94
2022-10-04T01:12:19.166Z,79.32
2022-10-04T01:15:42.997Z,79.43
2022-10-04T01:18:46.928Z,80.75
2022-10-04T01:22:15.340Z,79.65
2022-10-04T01:25:52.410Z,79.95
2022-10-04T01:28:56.612Z,79.92
2022-10-04T01:32:00.575Z,80.41
2022-10-04T01:35:07.572Z,79.21
2022-10-04T01:38:13.334Z,80.41
2022-10-04T01:41:20.457Z,80.00
2022-10-04T01:44:37.433Z,80.14
2022-10-04T01:47:49.533Z,78.95
2022-10-04T01:51:05.062Z,79.24
2022-10-04T01:54:16.075Z,80.07
2022-10-04T01:57:34.543Z,79.26
2022-10-04T02:00:49.861Z,79.23
2022-10-04T02:04:02.179Z,78.93
2022-10-04T02:07:12.748Z,79.35
2022-10-04T02:10:21.108Z,79.51
2022-10-04T02:13:30.310Z,80.07
2022-10-04T02:16:38.662Z,80.32
2022-10-04T02:19:43.508Z,79.80
2022-10-04T02:22:49.726Z,79.55
2022-10-04T02:25:52.880Z,79.23
2022-10-04T02:28:55.048Z,80.04
2022-10-04T02:32:16.253Z,79.83
2022-10-04T02:35:20.111Z,79.99
2022-10-04T02:38:32.282Z,79.90
2022-10-04T02:41:49.427Z,78.95
2022-10-04T02:45:00.483Z,79.47
2022-10-04T02:48:14.445Z,79.43
2022-10-04T02:51:33.621Z,79.73
2022-10-04T02:54:54.726Z,78.48
2022-10-04T02:57:58.666Z,78.10
2022-10-04T03:01:02.079Z,78.19
2022-10-04T03:04:04.774Z,78.22
2022-10-04T03:07:09.570Z,78.13
2022-10-04T03:10:13.721Z,77.87
2022-10-04T03:13:18.115Z,77.79
2022-10-04T03:16:21.948Z,77.36
2022-10-04T03:19:27.454Z,77.61
2022-10-04T03:22:29.565Z,77.48
2022-10-04T03:25:45.471Z,77.50
2022-10-04T03:28:48.702Z,77.15
2022-10-04T03:31:57.605Z,77.33
2022-10-04T03:35:03.174Z,76.78
2022-10-04T03:38:09.285Z,76.94
2022-10-04T03:41:14.015Z,76.88
2022-10-04T03:44:18.979Z,77.19
2022-10-04T03:47:26.899Z,76.48
2022-10-04T03:50:34.389Z,77.39
2022-10-04T03:53:43.624Z,77.31
2022-10-04T03:56:47.495Z,77.63
2022-10-04T03:59:51.259Z,76.88
2022-10-04T04:02:59.908Z,79.09
2022-10-04T04:06:09.873Z,82.39
2022-10-04T04:09:39.453Z,85.34
2022-10-04T04:12:48.010Z,87.84
2022-10-04T04:15:51.538Z,89.55
2022-10-04T04:18:58.953Z,91.89
2022-10-04T04:22:01.127Z,92.23
2022-10-04T04:25:08.457Z,92.21
2022-10-04T04:28:29.037Z,92.25
2022-10-04T04:31:51.043Z,94.85
2022-10-04T04:34:54.176Z,94.61
2022-10-04T04:38:05.139Z,93.08
2022-10-04T04:41:10.697Z,90.71
2022-10-04T04:44:18.358Z,90.96
2022-10-04T04:47:26.583Z,87.32
2022-10-04T04:50:41.299Z,85.72
2022-10-04T04:53:43.602Z,83.94
2022-10-04T04:56:49.429Z,82.54
2022-10-04T04:59:59.301Z,80.83
2022-10-04T05:03:03.776Z,80.23
2022-10-04T05:06:24.018Z,79.11
2022-10-04T05:09:28.922Z,78.41
2022-10-04T05:12:32.665Z,77.57
2022-10-04T05:15:41.081Z,77.06
2022-10-04T05:18:44.091Z,77.01
2022-10-04T05:21:49.688Z,76.68
2022-10-04T05:24:59.653Z,76.05
2022-10-04T05:28:02.413Z,76.83
2022-10-04T05:31:59.647Z,76.21
2022-10-04T05:35:04.353Z,75.97
2022-10-04T05:38:15.633Z,75.66
2022-10-04T05:41:24.213Z,74.58
2022-10-04T05:44:37.649Z,74.45
2022-10-04T05:47:41.144Z,74.61
2022-10-04T05:50:44.368Z,74.20
2022-10-04T05:53:47.215Z,73.65
2022-10-04T05:57:02.049Z,73.47
2022-10-04T06:00:13.817Z,73.57
2022-10-04T06:03:49.432Z,72.72
2022-10-04T06:06:58.403Z,71.93
2022-10-04T06:10:39.744Z,72.39
2022-10-04T06:14:09.322Z,71.17
2022-10-04T06:17:30.673Z,70.71
2022-10-04T06:20:44.828Z,69.61
2022-10-04T06:24:14.690Z,69.21
2022-10-04T06:27:45.628Z,67.33
2022-10-04T06:30:56.691Z,64.20
2022-10-04T06:34:19.903Z,61.23
2022-10-04T06:37:31.019Z,60.18
2022-10-04T06:40:48.705Z,58.23
2022-10-04T06:44:04.689Z,58.37
2022-10-04T06:47:20.158Z,59.69
2022-10-04T06:50:38.637Z,58.45
2022-10-04T06:54:02.295Z,58.01
2022-10-04T06:57:23.685Z,57.35
2022-10-04T07:00:35.265Z,59.66
2022-10-04T07:03:54.670Z,60.00
2022-10-04T07:07:25.478Z,59.76
2022-10-04T07:10:33.592Z,56.00
2022-10-04T07:13:49.018Z,53.74
2022-10-04T07:16:56.518Z,53.61
2022-10-04T07:20:01.897Z,54.69
2022-10-04T07:23:34.553Z,52.07
2022-10-04T07:26:47.491Z,52.79
2022-10-04T07:29:55.470Z,52.84
2022-10-04T07:33:01.555Z,53.38
2022-10-04T07:36:17.590Z,53.36
2022-10-04T07:39:33.641Z,52.42
2022-10-04T07:42:44.512Z,53.54
2022-10-04T07:45:49.451Z,54.29
2022-10-04T07:48:55.563Z,54.65
2022-10-04T07:52:16.683Z,55.26
2022-10-04T07:55:28.856Z,54.48
2022-10-04T08:01:19.624Z,55.72
2022-10-04T08:04:46.527Z,56.12
2022-10-04T08:08:16.823Z,66.77
2022-10-04T08:11:44.700Z,58.49
2022-10-04T08:15:17.243Z,57.13
2022-10-04T08:18:34.639Z,56.18
2022-10-04T08:21:56.975Z,55.87
2022-10-04T08:25:26.932Z,55.67
2022-10-04T08:29:19.925Z,56.62
2022-10-04T08:32:24.853Z,56.41
2022-10-04T08:35:36.516Z,56.04
2022-10-04T08:38:38.718Z,56.13
2022-10-04T08:42:24.819Z,55.35
2022-10-04T08:45:58.331Z,55.19
2022-10-04T08:49:14.428Z,54.33
2022-10-04T08:52:41.043Z,54.10
2022-10-04T08:56:18.396Z,55.29
2022-10-04T08:59:46.727Z,58.78
2022-10-04T09:03:38.390Z,58.54
2022-10-04T09:07:03.578Z,58.87
2022-10-04T09:10:36.437Z,57.67
2022-10-04T09:13:57.623Z,58.45
2022-10-04T09:17:21.997Z,63.53
2022-10-04T09:20:53.684Z,56.83
2022-10-04T09:24:14.398Z,54.50
2022-10-04T09:27:54.630Z,53.37
2022-10-04T09:31:15.559Z,53.63
2022-10-04T09:34:55.028Z,52.46
2022-10-04T09:38:25.199Z,53.38
2022-10-04T09:41:52.534Z,51.06
2022-10-04T09:45:20.480Z,51.47
2022-10-04T09:48:37.770Z,49.42
2022-10-04T09:52:02.859Z,49.84
2022-10-04T09:55:42.798Z,49.54
2022-10-04T09:58:58.635Z,47.51
2022-10-04T10:02:26.703Z,49.03
2022-10-04T10:05:49.934Z,65.04
2022-10-04T10:09:10.092Z,68.07
2022-10-04T10:12:48.129Z,66.50
2022-10-04T10:16:08.732Z,67.16
2022-10-04T10:19:35.099Z,69.87
2022-10-04T10:22:55.195Z,71.47
2022-10-04T10:26:24.173Z,71.86
2022-10-04T10:29:55.455Z,74.24
2022-10-04T10:33:26.932Z,74.52
2022-10-04T10:36:34.856Z,76.55
2022-10-04T10:40:16.897Z,77.66
2022-10-04T10:43:41.544Z,78.14
2022-10-04T10:47:11.552Z,77.36
2022-10-04T10:51:04.452Z,76.01
2022-10-04T10:54:25.448Z,75.33
2022-10-04T10:57:45.722Z,75.51
2022-10-04T11:01:31.140Z,75.20
2022-10-04T11:04:38.663Z,74.82
2022-10-04T11:07:56.412Z,74.17
2022-10-04T11:11:15.068Z,74.31
2022-10-04T11:15:08.252Z,74.13
2022-10-04T11:18:34.731Z,74.20
2022-10-04T11:21:51.465Z,73.03
2022-10-04T11:25:08.490Z,70.27
2022-10-04T11:28:17.016Z,67.13
2022-10-04T11:31:47.075Z,66.85
2022-10-04T11:35:12.135Z,66.23
2022-10-04T11:38:31.413Z,66.85
2022-10-04T11:42:41.680Z,66.74
2022-10-04T11:46:16.447Z,67.62
2022-10-04T11:49:21.241Z,67.51
2022-10-04T11:53:03.325Z,67.65
2022-10-04T11:56:29.862Z,67.29
2022-10-04T11:59:40.868Z,68.76
2022-10-04T12:03:10.994Z,69.64
2022-10-04T12:06:50.482Z,69.09
2022-10-04T12:10:04.509Z,70.56
2022-10-04T12:13:34.731Z,70.07
2022-10-04T12:16:49.218Z,70.16
2022-10-04T12:20:34.389Z,70.38
2022-10-04T12:24:03.563Z,69.69
2022-10-04T12:27:28.747Z,70.84
2022-10-04T12:30:34.561Z,69.77
2022-10-04T12:33:54.227Z,70.39
2022-10-04T12:37:18.173Z,70.70
2022-10-04T12:40:26.156Z,72.09
2022-10-04T12:43:46.740Z,73.35
2022-10-04T12:46:49.741Z,73.80
2022-10-04T12:49:57.935Z,75.05
2022-10-04T12:53:14.800Z,74.02
2022-10-04T12:56:29.416Z,74.29
2022-10-04T12:59:37.074Z,74.51
2022-10-04T13:03:19.183Z,75.15
2022-10-04T13:06:55.791Z,75.64
2022-10-04T13:10:25.096Z,75.64
2022-10-04T13:13:47.180Z,75.19
2022-10-04T13:20:23.137Z,74.25
2022-10-04T13:23:43.412Z,74.96
2022-10-04T13:27:03.619Z,75.52
2022-10-04T13:30:26.503Z,75.04
2022-10-04T13:33:46.375Z,75.47
2022-10-04T13:37:15.133Z,75.49
2022-10-04T13:40:30.291Z,74.26
2022-10-04T13:44:01.655Z,74.04
2022-10-04T13:47:25.278Z,72.54
2022-10-04T13:50:43.662Z,73.65
2022-10-04T13:54:36.895Z,71.94
2022-10-04T13:58:11.186Z,72.25
2022-10-04T14:01:41.474Z,71.93
2022-10-04T14:05:16.095Z,72.88
2022-10-04T14:08:50.850Z,71.88
2022-10-04T14:12:16.637Z,71.73
2022-10-04T14:15:33.527Z,72.73
2022-10-04T14:19:05.293Z,71.29
2022-10-04T14:22:26.295Z,72.16
2022-10-04T14:25:43.176Z,71.23
2022-10-04T14:28:58.370Z,70.48
2022-10-04T14:32:20.933Z,71.15
2022-10-04T14:35:48.830Z,71.18
2022-10-04T14:39:03.260Z,71.22
2022-10-04T14:42:48.740Z,71.40
2022-10-04T14:46:13.758Z,70.96
2022-10-04T14:49:36.170Z,71.23
2022-10-04T14:53:01.346Z,70.95
2022-10-04T14:56:17.186Z,71.34
2022-10-04T14:59:31.742Z,71.53
2022-10-04T15:02:33.670Z,72.50
2022-10-04T15:05:54.962Z,72.65
2022-10-04T15:09:12.042Z,72.94
2022-10-04T15:12:58.617Z,72.96
2022-10-04T15:16:28.697Z,73.84
2022-10-04T15:19:49.907Z,74.27
2022-10-04T15:23:08.098Z,74.37
2022-10-04T15:26:19.018Z,74.29
2022-10-04T15:29:31.926Z,74.93
2022-10-04T15:32:45.888Z,75.28
2022-10-04T15:36:39.845Z,75.73
2022-10-04T15:40:28.496Z,76.22
2022-10-04T15:43:32.256Z,76.38
2022-10-04T15:46:45.149Z,76.38
2022-10-04T15:49:57.366Z,76.42
2022-10-04T15:53:39.355Z,76.06
2022-10-04T15:56:41.795Z,75.96
2022-10-04T15:59:55.744Z,75.22
2022-10-04T16:03:18.512Z,74.73
2022-10-04T16:06:26.478Z,74.67
2022-10-04T16:09:49.912Z,74.26
2022-10-04T16:13:14.627Z,74.00
2022-10-04T16:16:21.580Z,73.51
2022-10-04T16:19:48.121Z,74.22
2022-10-04T16:23:28.598Z,73.55
2022-10-04T16:26:30.495Z,73.89
2022-10-04T16:30:29.430Z,73.95
2022-10-04T16:33:51.654Z,73.62
2022-10-04T16:37:26.299Z,74.77
2022-10-04T16:40:38.416Z,75.26
2022-10-04T16:43:54.405Z,81.56
2022-10-04T16:47:02.160Z,83.98
2022-10-04T16:50:06.811Z,84.07
2022-10-04T16:53:27.118Z,83.94
2022-10-04T16:56:34.934Z,83.25
2022-10-04T16:59:37.105Z,83.60
2022-10-04T17:03:01.321Z,83.58
2022-10-04T17:06:14.341Z,82.51
2022-10-04T17:09:27.616Z,82.74
2022-10-04T17:13:07.256Z,82.58
2022-10-04T17:16:36.546Z,83.28
2022-10-04T17:19:54.253Z,83.02
2022-10-04T17:23:18.074Z,83.53
2022-10-04T17:26:30.005Z,82.34
2022-10-04T17:29:58.508Z,82.39
2022-10-04T17:33:18.045Z,81.15
2022-10-04T17:36:28.804Z,80.73
2022-10-04T17:39:33.617Z,80.97
2022-10-04T17:43:03.176Z,81.12
2022-10-04T17:46:28.216Z,80.94
2022-10-04T17:50:06.046Z,80.74
2022-10-04T17:53:42.253Z,80.84
2022-10-04T17:56:59.115Z,80.62
2022-10-04T18:00:10.341Z,80.44
2022-10-04T18:03:19.431Z,81.10
2022-10-04T18:06:43.362Z,81.51
2022-10-04T18:09:49.275Z,81.19
2022-10-04T18:12:56.115Z,80.70
2022-10-04T18:16:14.604Z,78.81
2022-10-04T18:19:49.609Z,77.52
2022-10-04T18:23:14.064Z,75.69
2022-10-04T18:26:18.534Z,74.72
2022-10-04T18:29:36.323Z,74.14
2022-10-04T18:32:38.689Z,72.98
2022-10-04T18:36:09.461Z,72.28
2022-10-04T18:39:11.444Z,71.83
2022-10-04T18:42:39.622Z,71.08
2022-10-04T18:46:23.251Z,71.44
2022-10-04T18:49:30.543Z,71.89
2022-10-04T18:53:00.399Z,71.34
2022-10-04T18:56:08.994Z,71.37
2022-10-04T18:59:50.926Z,72.67
2022-10-04T19:03:04.544Z,73.91
2022-10-04T19:06:15.693Z,74.27
2022-10-04T19:09:26.830Z,74.25
2022-10-04T19:12:54.867Z,75.85
2022-10-04T19:15:57.200Z,75.07
2022-10-04T19:19:27.707Z,74.84
2022-10-04T19:22:30.890Z,73.82
2022-10-04T19:25:35.512Z,73.03
2022-10-04T19:28:39.537Z,72.83
2022-10-04T19:32:19.909Z,72.65
2022-10-04T19:35:27.787Z,72.74
2022-10-04T19:38:55.786Z,73.07
2022-10-04T19:42:00.619Z,73.39
2022-10-04T19:45:16.432Z,73.59
2022-10-04T19:48:25.822Z,73.16
2022-10-04T19:51:45.865Z,73.06
2022-10-04T19:54:56.947Z,73.48
2022-10-04T19:58:16.911Z,72.76
2022-10-04T20:01:23.305Z,72.86
2022-10-04T20:04:38.656Z,73.25
2022-10-04T20:07:41.384Z,73.42
2022-10-04T20:10:44.435Z,73.37
2022-10-04T20:14:09.462Z,73.69
2022-10-04T20:17:30.596Z,73.73
2022-10-04T20:20:41.184Z,74.05
2022-10-04T20:23:48.780Z,74.23
2022-10-04T20:27:01.609Z,73.82
2022-10-04T20:30:14.356Z,73.92
2022-10-04T20:33:46.580Z,73.97
2022-10-04T20:36:51.689Z,74.27
2022-10-04T20:39:56.718Z,74.05
2022-10-04T20:43:14.137Z,74.47
2022-10-04T20:46:24.138Z,74.51
2022-10-04T20:49:27.473Z,74.43
2022-10-04T20:52:31.835Z,74.88
2022-10-04T20:55:37.406Z,75.10
2022-10-04T20:58:40.655Z,75.31
2022-10-04T21:01:45.951Z,75.54
2022-10-04T21:04:52.097Z,75.53
2022-10-04T21:08:23.431Z,75.62
2022-10-04T21:11:44.318Z,75.92
2022-10-04T21:15:02.656Z,76.07
2022-10-04T21:18:11.318Z,75.62
2022-10-04T21:21:20.946Z,76.18
2022-10-04T21:24:40.007Z,75.63
2022-10-04T21:27:44.710Z,75.93
2022-10-04T21:30:46.923Z,76.19
2022-10-04T21:33:51.228Z,76.19
2022-10-04T21:36:53.308Z,76.26
2022-10-04T21:39:56.240Z,75.91
2022-10-04T21:42:58.295Z,76.04
2022-10-04T21:46:00.610Z,77.04
2022-10-04T21:49:04.022Z,76.49
2022-10-04T21:52:06.242Z,76.46
2022-10-04T21:55:10.766Z,76.34
2022-10-04T21:58:13.029Z,76.36
2022-10-04T22:01:15.259Z,76.79
2022-10-04T22:04:17.534Z,76.67
2022-10-04T22:07:19.569Z,76.59
2022-10-04T22:10:21.781Z,76.57
2022-10-04T22:13:24.017Z,76.72
2022-10-04T22:16:26.774Z,76.79
2022-10-04T22:19:28.793Z,76.71
2022-10-04T22:22:34.271Z,76.44
2022-10-04T22:25:40.309Z,76.32
2022-10-04T22:28:45.480Z,76.17
2022-10-04T22:31:51.194Z,75.90
2022-10-04T22:35:01.172Z,75.86
2022-10-04T22:38:08.442Z,75.91
2022-10-04T22:41:14.354Z,75.43
2022-10-04T22:44:18.573Z,75.87
2022-10-04T22:47:20.691Z,75.18
2022-10-04T22:50:27.837Z,75.88
2022-10-04T22:53:29.953Z,74.71
2022-10-04T22:56:32.076Z,75.20
2022-10-04T22:59:40.592Z,75.74
2022-10-04T23:02:43.905Z,75.18
2022-10-04T23:05:45.926Z,75.06
2022-10-04T23:08:47.941Z,75.64
2022-10-04T23:11:50.011Z,75.43
2022-10-04T23:14:52.235Z,75.16
2022-10-04T23:17:55.662Z,75.28
2022-10-04T23:21:00.633Z,74.99
2022-10-04T23:24:17.724Z,75.22
2022-10-04T23:27:20.134Z,74.89
2022-10-04T23:30:22.861Z,75.26
2022-10-04T23:33:24.985Z,75.06
2022-10-04T23:36:27.093Z,74.80
2022-10-04T23:39:32.788Z,75.33
2022-10-04T23:42:36.914Z,75.42
2022-10-04T23:45:42.227Z,75.92
2022-10-04T23:48:44.742Z,75.26
2022-10-04T23:51:48.332Z,75.19
2022-10-04T23:54:52.775Z,74.73
2022-10-04T23:57:54.954Z,74.83
